sensor_id;sensor_type;location;lat;lon;timestamp;temperature;humidity
51765;DHT22;37835;53.256;6.456;2022-10-31T00:00:44;12.40;99.90
51765;DHT22;37835;53.256;6.456;2022-10-31T00:03:10;12.30;99.90
51765;DHT22;37835;53.256;6.456;2022-10-31T00:05:39;12.30;99.90
51765;DHT22;37835;53.256;6.456;2022-10-31T00:08:05;12.30;99.90
51765;DHT22;37835;53.256;6.456;2022-10-31T00:10:30;12.30;99.90
51765;DHT22;37835;53.256;6.456;2022-10-31T00:12:56;12.30;99.90
51765;DHT22;37835;53.256;6.456;2022-10-31T00:15:21;12.20;99.90
51765;DHT22;37835;53.256;6.456;2022-10-31T00:17:47;12.20;99.90
51765;DHT22;37835;53.256;6.456;2022-10-31T00:20:12;12.20;99.90
51765;DHT22;37835;53.256;6.456;2022-10-31T00:22:38;12.10;99.90
51765;DHT22;37835;53.256;6.456;2022-10-31T00:25:04;12.10;99.90
51765;DHT22;37835;53.256;6.456;2022-10-31T00:27:29;12.10;99.90
51765;DHT22;37835;53.256;6.456;2022-10-31T00:29:55;12.00;99.90
51765;DHT22;37835;53.256;6.456;2022-10-31T00:32:20;12.00;99.90
51765;DHT22;37835;53.256;6.456;2022-10-31T00:34:46;12.00;99.90
51765;DHT22;37835;53.256;6.456;2022-10-31T00:37:11;12.00;99.90
51765;DHT22;37835;53.256;6.456;2022-10-31T00:39:37;12.00;99.90
51765;DHT22;37835;53.256;6.456;2022-10-31T00:42:02;11.90;99.90
51765;DHT22;37835;53.256;6.456;2022-10-31T00:44:28;11.90;99.90
51765;DHT22;37835;53.256;6.456;2022-10-31T00:46:54;11.90;99.90
51765;DHT22;37835;53.256;6.456;2022-10-31T00:49:19;11.90;99.90
51765;DHT22;37835;53.256;6.456;2022-10-31T00:51:45;11.90;99.90
51765;DHT22;37835;53.256;6.456;2022-10-31T00:54:10;11.80;99.90
51765;DHT22;37835;53.256;6.456;2022-10-31T00:56:36;11.80;99.90
51765;DHT22;37835;53.256;6.456;2022-10-31T00:59:01;11.70;99.90
51765;DHT22;37835;53.256;6.456;2022-10-31T01:01:27;11.70;99.90
51765;DHT22;37835;53.256;6.456;2022-10-31T01:03:52;11.70;99.90
51765;DHT22;37835;53.256;6.456;2022-10-31T01:06:18;11.70;99.90
51765;DHT22;37835;53.256;6.456;2022-10-31T01:08:44;11.60;99.90
51765;DHT22;37835;53.256;6.456;2022-10-31T01:11:15;11.60;99.90
51765;DHT22;37835;53.256;6.456;2022-10-31T01:13:41;11.60;99.90
51765;DHT22;37835;53.256;6.456;2022-10-31T01:16:08;11.60;99.90
51765;DHT22;37835;53.256;6.456;2022-10-31T01:18:35;11.60;99.90
51765;DHT22;37835;53.256;6.456;2022-10-31T01:21:03;11.50;99.90
51765;DHT22;37835;53.256;6.456;2022-10-31T01:23:29;11.50;99.90
51765;DHT22;37835;53.256;6.456;2022-10-31T01:26:19;11.50;99.90
51765;DHT22;37835;53.256;6.456;2022-10-31T01:31:12;11.50;99.90
51765;DHT22;37835;53.256;6.456;2022-10-31T01:33:38;11.50;99.90
51765;DHT22;37835;53.256;6.456;2022-10-31T01:36:34;11.50;99.90
51765;DHT22;37835;53.256;6.456;2022-10-31T01:39:03;11.40;99.90
51765;DHT22;37835;53.256;6.456;2022-10-31T01:41:33;11.40;99.90
51765;DHT22;37835;53.256;6.456;2022-10-31T01:44:00;11.40;99.90
51765;DHT22;37835;53.256;6.456;2022-10-31T01:49:31;11.40;99.90
51765;DHT22;37835;53.256;6.456;2022-10-31T01:54:48;11.40;99.90
51765;DHT22;37835;53.256;6.456;2022-10-31T01:57:17;11.30;99.90
51765;DHT22;37835;53.256;6.456;2022-10-31T01:59:47;11.30;99.90
51765;DHT22;37835;53.256;6.456;2022-10-31T02:02:15;11.30;99.90
51765;DHT22;37835;53.256;6.456;2022-10-31T02:04:42;11.30;99.90
51765;DHT22;37835;53.256;6.456;2022-10-31T02:07:18;11.30;99.90
51765;DHT22;37835;53.256;6.456;2022-10-31T02:09:46;11.30;99.90
51765;DHT22;37835;53.256;6.456;2022-10-31T02:12:13;11.30;99.90
51765;DHT22;37835;53.256;6.456;2022-10-31T02:14:39;11.20;99.90
51765;DHT22;37835;53.256;6.456;2022-10-31T02:17:05;11.20;99.90
51765;DHT22;37835;53.256;6.456;2022-10-31T02:25:36;11.20;99.90
51765;DHT22;37835;53.256;6.456;2022-10-31T02:28:22;11.10;99.90
51765;DHT22;37835;53.256;6.456;2022-10-31T02:31:22;11.10;99.90
51765;DHT22;37835;53.256;6.456;2022-10-31T02:36:59;11.10;99.90
51765;DHT22;37835;53.256;6.456;2022-10-31T02:39:34;11.10;99.90
51765;DHT22;37835;53.256;6.456;2022-10-31T02:45:37;11.00;99.90
51765;DHT22;37835;53.256;6.456;2022-10-31T02:48:10;11.00;99.90
51765;DHT22;37835;53.256;6.456;2022-10-31T02:50:40;11.00;99.90
51765;DHT22;37835;53.256;6.456;2022-10-31T02:53:06;10.90;99.90
51765;DHT22;37835;53.256;6.456;2022-10-31T02:58:11;10.80;99.90
51765;DHT22;37835;53.256;6.456;2022-10-31T03:01:16;10.80;99.90
51765;DHT22;37835;53.256;6.456;2022-10-31T03:09:22;10.70;99.90
51765;DHT22;37835;53.256;6.456;2022-10-31T03:14:32;10.70;99.90
51765;DHT22;37835;53.256;6.456;2022-10-31T03:17:03;10.70;99.90
51765;DHT22;37835;53.256;6.456;2022-10-31T03:19:34;10.70;99.90
51765;DHT22;37835;53.256;6.456;2022-10-31T03:22:23;10.60;99.90
51765;DHT22;37835;53.256;6.456;2022-10-31T03:24:50;10.70;99.90
51765;DHT22;37835;53.256;6.456;2022-10-31T03:27:20;10.60;99.90
51765;DHT22;37835;53.256;6.456;2022-10-31T03:29:49;10.60;99.90
51765;DHT22;37835;53.256;6.456;2022-10-31T03:32:26;10.60;99.90
51765;DHT22;37835;53.256;6.456;2022-10-31T03:34:55;10.60;99.90
51765;DHT22;37835;53.256;6.456;2022-10-31T03:37:24;10.60;99.90
51765;DHT22;37835;53.256;6.456;2022-10-31T03:39:51;10.60;99.90
51765;DHT22;37835;53.256;6.456;2022-10-31T03:42:29;10.50;99.90
51765;DHT22;37835;53.256;6.456;2022-10-31T03:45:01;10.50;99.90
51765;DHT22;37835;53.256;6.456;2022-10-31T03:47:29;10.50;99.90
51765;DHT22;37835;53.256;6.456;2022-10-31T03:49:55;10.50;99.90
51765;DHT22;37835;53.256;6.456;2022-10-31T03:52:49;10.50;99.90
51765;DHT22;37835;53.256;6.456;2022-10-31T03:55:18;10.40;99.90
51765;DHT22;37835;53.256;6.456;2022-10-31T03:58:04;10.50;99.90
51765;DHT22;37835;53.256;6.456;2022-10-31T04:00:33;10.40;99.90
51765;DHT22;37835;53.256;6.456;2022-10-31T04:03:12;10.40;99.90
51765;DHT22;37835;53.256;6.456;2022-10-31T04:05:40;10.40;99.90
51765;DHT22;37835;53.256;6.456;2022-10-31T04:08:09;10.40;99.90
51765;DHT22;37835;53.256;6.456;2022-10-31T04:10:38;10.40;99.90
51765;DHT22;37835;53.256;6.456;2022-10-31T04:13:12;10.30;99.90
51765;DHT22;37835;53.256;6.456;2022-10-31T04:15:39;10.30;99.90
51765;DHT22;37835;53.256;6.456;2022-10-31T04:18:06;10.30;99.90
51765;DHT22;37835;53.256;6.456;2022-10-31T04:20:37;10.30;99.90
51765;DHT22;37835;53.256;6.456;2022-10-31T04:23:04;10.30;99.90
51765;DHT22;37835;53.256;6.456;2022-10-31T04:25:30;10.30;99.90
51765;DHT22;37835;53.256;6.456;2022-10-31T04:27:55;10.20;99.90
51765;DHT22;37835;53.256;6.456;2022-10-31T04:30:21;10.20;99.90
51765;DHT22;37835;53.256;6.456;2022-10-31T04:32:47;10.20;99.90
51765;DHT22;37835;53.256;6.456;2022-10-31T04:35:13;10.20;99.90
51765;DHT22;37835;53.256;6.456;2022-10-31T04:37:38;10.20;99.90
51765;DHT22;37835;53.256;6.456;2022-10-31T04:40:05;10.10;99.90
51765;DHT22;37835;53.256;6.456;2022-10-31T04:42:31;10.10;99.90
51765;DHT22;37835;53.256;6.456;2022-10-31T04:44:56;10.10;99.90
51765;DHT22;37835;53.256;6.456;2022-10-31T04:47:22;10.10;99.90
51765;DHT22;37835;53.256;6.456;2022-10-31T04:49:48;10.10;99.90
51765;DHT22;37835;53.256;6.456;2022-10-31T04:52:13;10.00;99.90
51765;DHT22;37835;53.256;6.456;2022-10-31T04:54:39;10.00;99.90
51765;DHT22;37835;53.256;6.456;2022-10-31T04:57:05;10.00;99.90
51765;DHT22;37835;53.256;6.456;2022-10-31T04:59:31;10.10;99.90
51765;DHT22;37835;53.256;6.456;2022-10-31T05:01:56;10.10;99.90
51765;DHT22;37835;53.256;6.456;2022-10-31T05:04:22;10.10;99.90
51765;DHT22;37835;53.256;6.456;2022-10-31T05:06:47;10.10;99.90
51765;DHT22;37835;53.256;6.456;2022-10-31T05:09:13;10.10;99.90
51765;DHT22;37835;53.256;6.456;2022-10-31T05:11:39;10.10;99.90
51765;DHT22;37835;53.256;6.456;2022-10-31T05:14:04;10.10;99.90
51765;DHT22;37835;53.256;6.456;2022-10-31T05:16:30;10.00;99.90
51765;DHT22;37835;53.256;6.456;2022-10-31T05:18:55;10.00;99.90
51765;DHT22;37835;53.256;6.456;2022-10-31T05:21:21;10.00;99.90
51765;DHT22;37835;53.256;6.456;2022-10-31T05:23:47;10.00;99.90
51765;DHT22;37835;53.256;6.456;2022-10-31T05:26:12;10.00;99.90
51765;DHT22;37835;53.256;6.456;2022-10-31T05:28:38;10.00;99.90
51765;DHT22;37835;53.256;6.456;2022-10-31T05:31:03;10.00;99.90
51765;DHT22;37835;53.256;6.456;2022-10-31T05:33:29;10.00;99.90
51765;DHT22;37835;53.256;6.456;2022-10-31T05:35:54;10.00;99.90
51765;DHT22;37835;53.256;6.456;2022-10-31T05:38:20;10.00;99.90
51765;DHT22;37835;53.256;6.456;2022-10-31T05:40:46;10.00;99.90
51765;DHT22;37835;53.256;6.456;2022-10-31T05:43:11;9.90;99.90
51765;DHT22;37835;53.256;6.456;2022-10-31T05:45:37;10.00;99.90
51765;DHT22;37835;53.256;6.456;2022-10-31T05:48:03;10.00;99.90
51765;DHT22;37835;53.256;6.456;2022-10-31T05:50:30;9.90;99.90
51765;DHT22;37835;53.256;6.456;2022-10-31T05:52:58;10.00;99.90
51765;DHT22;37835;53.256;6.456;2022-10-31T05:55:24;9.90;99.90
51765;DHT22;37835;53.256;6.456;2022-10-31T05:57:51;9.90;99.90
51765;DHT22;37835;53.256;6.456;2022-10-31T06:00:18;9.90;99.90
51765;DHT22;37835;53.256;6.456;2022-10-31T06:02:43;10.10;99.90
51765;DHT22;37835;53.256;6.456;2022-10-31T06:05:09;9.90;99.90
51765;DHT22;37835;53.256;6.456;2022-10-31T06:07:35;9.90;99.90
51765;DHT22;37835;53.256;6.456;2022-10-31T06:10:02;9.90;99.90
51765;DHT22;37835;53.256;6.456;2022-10-31T06:12:28;9.90;99.90
51765;DHT22;37835;53.256;6.456;2022-10-31T06:14:54;9.90;99.90
51765;DHT22;37835;53.256;6.456;2022-10-31T06:17:20;9.90;99.90
51765;DHT22;37835;53.256;6.456;2022-10-31T06:19:45;9.80;99.90
51765;DHT22;37835;53.256;6.456;2022-10-31T06:22:11;9.80;99.90
51765;DHT22;37835;53.256;6.456;2022-10-31T06:24:37;9.80;99.90
51765;DHT22;37835;53.256;6.456;2022-10-31T06:27:03;9.80;99.90
51765;DHT22;37835;53.256;6.456;2022-10-31T06:29:29;9.80;99.90
51765;DHT22;37835;53.256;6.456;2022-10-31T06:31:54;9.80;99.90
51765;DHT22;37835;53.256;6.456;2022-10-31T06:34:20;9.80;99.90
51765;DHT22;37835;53.256;6.456;2022-10-31T06:36:48;9.80;99.90
51765;DHT22;37835;53.256;6.456;2022-10-31T06:39:15;9.80;99.90
51765;DHT22;37835;53.256;6.456;2022-10-31T06:41:41;9.70;99.90
51765;DHT22;37835;53.256;6.456;2022-10-31T06:44:07;9.70;99.90
51765;DHT22;37835;53.256;6.456;2022-10-31T06:46:33;9.70;99.90
51765;DHT22;37835;53.256;6.456;2022-10-31T06:48:59;9.70;99.90
51765;DHT22;37835;53.256;6.456;2022-10-31T06:51:24;9.70;99.90
51765;DHT22;37835;53.256;6.456;2022-10-31T06:53:50;9.70;99.90
51765;DHT22;37835;53.256;6.456;2022-10-31T06:56:16;9.70;99.90
51765;DHT22;37835;53.256;6.456;2022-10-31T06:58:41;9.70;99.90
51765;DHT22;37835;53.256;6.456;2022-10-31T07:01:07;9.60;99.90
51765;DHT22;37835;53.256;6.456;2022-10-31T07:03:32;9.60;99.90
51765;DHT22;37835;53.256;6.456;2022-10-31T07:05:58;9.60;99.90
51765;DHT22;37835;53.256;6.456;2022-10-31T07:08:24;9.60;99.90
51765;DHT22;37835;53.256;6.456;2022-10-31T07:10:55;9.60;99.90
51765;DHT22;37835;53.256;6.456;2022-10-31T07:13:21;9.60;99.90
51765;DHT22;37835;53.256;6.456;2022-10-31T07:15:54;9.60;99.90
51765;DHT22;37835;53.256;6.456;2022-10-31T07:18:21;9.60;99.90
51765;DHT22;37835;53.256;6.456;2022-10-31T07:20:47;9.60;99.90
51765;DHT22;37835;53.256;6.456;2022-10-31T07:23:13;9.70;99.90
51765;DHT22;37835;53.256;6.456;2022-10-31T07:25:39;9.70;99.90
51765;DHT22;37835;53.256;6.456;2022-10-31T07:28:05;9.70;99.90
51765;DHT22;37835;53.256;6.456;2022-10-31T07:30:32;9.70;99.90
51765;DHT22;37835;53.256;6.456;2022-10-31T07:32:57;9.70;99.90
51765;DHT22;37835;53.256;6.456;2022-10-31T07:35:26;9.70;99.90
51765;DHT22;37835;53.256;6.456;2022-10-31T07:37:52;9.70;99.90
51765;DHT22;37835;53.256;6.456;2022-10-31T07:40:18;9.70;99.90
51765;DHT22;37835;53.256;6.456;2022-10-31T07:42:46;9.80;99.90
51765;DHT22;37835;53.256;6.456;2022-10-31T07:45:14;9.80;99.90
51765;DHT22;37835;53.256;6.456;2022-10-31T07:47:47;9.90;99.90
51765;DHT22;37835;53.256;6.456;2022-10-31T07:50:18;9.90;99.90
51765;DHT22;37835;53.256;6.456;2022-10-31T07:52:44;9.90;99.90
51765;DHT22;37835;53.256;6.456;2022-10-31T07:55:10;10.00;99.90
51765;DHT22;37835;53.256;6.456;2022-10-31T07:57:36;10.00;99.90
51765;DHT22;37835;53.256;6.456;2022-10-31T08:00:06;10.10;99.90
51765;DHT22;37835;53.256;6.456;2022-10-31T08:02:33;10.20;99.90
51765;DHT22;37835;53.256;6.456;2022-10-31T08:04:58;10.20;99.90
51765;DHT22;37835;53.256;6.456;2022-10-31T08:07:25;10.20;99.90
51765;DHT22;37835;53.256;6.456;2022-10-31T08:09:51;10.30;99.90
51765;DHT22;37835;53.256;6.456;2022-10-31T08:12:16;10.40;99.90
51765;DHT22;37835;53.256;6.456;2022-10-31T08:14:42;10.50;99.90
51765;DHT22;37835;53.256;6.456;2022-10-31T08:17:08;10.50;99.90
51765;DHT22;37835;53.256;6.456;2022-10-31T08:19:33;10.60;99.90
51765;DHT22;37835;53.256;6.456;2022-10-31T08:21:59;10.60;99.90
51765;DHT22;37835;53.256;6.456;2022-10-31T08:24:24;10.70;99.90
51765;DHT22;37835;53.256;6.456;2022-10-31T08:26:50;10.80;99.90
51765;DHT22;37835;53.256;6.456;2022-10-31T08:29:16;10.80;99.90
51765;DHT22;37835;53.256;6.456;2022-10-31T08:31:42;10.90;99.90
51765;DHT22;37835;53.256;6.456;2022-10-31T08:34:08;10.90;99.90
51765;DHT22;37835;53.256;6.456;2022-10-31T08:36:34;10.90;99.90
51765;DHT22;37835;53.256;6.456;2022-10-31T08:39:00;11.00;99.90
51765;DHT22;37835;53.256;6.456;2022-10-31T08:41:25;11.00;99.90
51765;DHT22;37835;53.256;6.456;2022-10-31T08:43:51;11.00;99.90
51765;DHT22;37835;53.256;6.456;2022-10-31T08:46:17;11.10;99.90
51765;DHT22;37835;53.256;6.456;2022-10-31T08:48:43;11.10;99.90
51765;DHT22;37835;53.256;6.456;2022-10-31T08:51:09;11.10;99.90
51765;DHT22;37835;53.256;6.456;2022-10-31T08:53:35;11.10;99.90
51765;DHT22;37835;53.256;6.456;2022-10-31T08:56:00;11.20;99.90
51765;DHT22;37835;53.256;6.456;2022-10-31T08:58:26;11.20;99.90
51765;DHT22;37835;53.256;6.456;2022-10-31T09:00:53;11.20;99.90
51765;DHT22;37835;53.256;6.456;2022-10-31T09:05:47;11.30;99.90
51765;DHT22;37835;53.256;6.456;2022-10-31T09:08:13;11.30;99.90
51765;DHT22;37835;53.256;6.456;2022-10-31T09:10:39;11.30;99.90
51765;DHT22;37835;53.256;6.456;2022-10-31T09:13:21;11.30;99.90
51765;DHT22;37835;53.256;6.456;2022-10-31T09:15:48;11.40;99.90
51765;DHT22;37835;53.256;6.456;2022-10-31T09:18:16;11.40;99.90
51765;DHT22;37835;53.256;6.456;2022-10-31T09:20:42;11.50;99.90
51765;DHT22;37835;53.256;6.456;2022-10-31T09:23:13;11.50;99.90
51765;DHT22;37835;53.256;6.456;2022-10-31T09:25:40;11.60;99.90
51765;DHT22;37835;53.256;6.456;2022-10-31T09:28:06;11.60;99.90
51765;DHT22;37835;53.256;6.456;2022-10-31T09:30:34;11.70;99.90
51765;DHT22;37835;53.256;6.456;2022-10-31T09:33:09;11.80;99.90
51765;DHT22;37835;53.256;6.456;2022-10-31T09:35:35;11.80;99.90
51765;DHT22;37835;53.256;6.456;2022-10-31T09:38:04;11.90;99.90
51765;DHT22;37835;53.256;6.456;2022-10-31T09:40:38;12.00;99.90
51765;DHT22;37835;53.256;6.456;2022-10-31T09:51:23;12.40;99.90
51765;DHT22;37835;53.256;6.456;2022-10-31T09:53:59;12.40;99.90
51765;DHT22;37835;53.256;6.456;2022-10-31T09:56:27;12.60;99.90
51765;DHT22;37835;53.256;6.456;2022-10-31T09:58:57;12.70;99.90
51765;DHT22;37835;53.256;6.456;2022-10-31T10:01:49;12.70;99.90
51765;DHT22;37835;53.256;6.456;2022-10-31T10:07:11;12.90;99.90
51765;DHT22;37835;53.256;6.456;2022-10-31T10:09:38;12.90;99.90
51765;DHT22;37835;53.256;6.456;2022-10-31T10:12:15;13.00;99.90
51765;DHT22;37835;53.256;6.456;2022-10-31T10:15:01;13.10;99.90
51765;DHT22;37835;53.256;6.456;2022-10-31T10:30:48;13.60;99.90
51765;DHT22;37835;53.256;6.456;2022-10-31T10:33:19;13.60;99.90
51765;DHT22;37835;53.256;6.456;2022-10-31T10:36:14;13.70;99.90
51765;DHT22;37835;53.256;6.456;2022-10-31T10:38:53;13.80;99.90
51765;DHT22;37835;53.256;6.456;2022-10-31T10:41:22;13.90;99.90
51765;DHT22;37835;53.256;6.456;2022-10-31T10:43:51;13.90;99.90
51765;DHT22;37835;53.256;6.456;2022-10-31T10:46:43;14.00;99.90
51765;DHT22;37835;53.256;6.456;2022-10-31T10:58:03;14.20;99.90
51765;DHT22;37835;53.256;6.456;2022-10-31T11:00:32;14.30;99.90
51765;DHT22;37835;53.256;6.456;2022-10-31T11:02:59;14.30;99.90
51765;DHT22;37835;53.256;6.456;2022-10-31T11:05:36;14.40;99.90
51765;DHT22;37835;53.256;6.456;2022-10-31T11:08:04;14.40;99.90
51765;DHT22;37835;53.256;6.456;2022-10-31T11:10:30;14.40;99.90
51765;DHT22;37835;53.256;6.456;2022-10-31T11:13:21;14.50;99.90
51765;DHT22;37835;53.256;6.456;2022-10-31T11:18:25;14.60;99.90
51765;DHT22;37835;53.256;6.456;2022-10-31T11:20:57;14.60;99.90
51765;DHT22;37835;53.256;6.456;2022-10-31T11:23:24;14.60;99.90
51765;DHT22;37835;53.256;6.456;2022-10-31T11:26:02;14.50;99.90
51765;DHT22;37835;53.256;6.456;2022-10-31T11:28:29;14.80;99.90
51765;DHT22;37835;53.256;6.456;2022-10-31T11:30:59;14.60;99.90
51765;DHT22;37835;53.256;6.456;2022-10-31T11:33:34;14.60;99.90
51765;DHT22;37835;53.256;6.456;2022-10-31T11:36:03;14.60;99.90
51765;DHT22;37835;53.256;6.456;2022-10-31T11:38:43;14.60;99.90
51765;DHT22;37835;53.256;6.456;2022-10-31T11:41:33;14.60;99.90
51765;DHT22;37835;53.256;6.456;2022-10-31T11:44:05;14.60;99.90
51765;DHT22;37835;53.256;6.456;2022-10-31T11:46:42;14.60;99.90
51765;DHT22;37835;53.256;6.456;2022-10-31T11:49:18;14.60;99.90
51765;DHT22;37835;53.256;6.456;2022-10-31T11:51:49;14.50;99.90
51765;DHT22;37835;53.256;6.456;2022-10-31T11:54:23;14.50;99.90
51765;DHT22;37835;53.256;6.456;2022-10-31T11:56:50;14.50;99.90
51765;DHT22;37835;53.256;6.456;2022-10-31T12:01:52;14.20;99.90
51765;DHT22;37835;53.256;6.456;2022-10-31T12:04:18;14.50;99.90
51765;DHT22;37835;53.256;6.456;2022-10-31T12:06:54;14.60;99.90
51765;DHT22;37835;53.256;6.456;2022-10-31T12:09:26;14.70;99.90
51765;DHT22;37835;53.256;6.456;2022-10-31T12:12:36;14.60;99.90
51765;DHT22;37835;53.256;6.456;2022-10-31T12:15:29;14.70;99.90
51765;DHT22;37835;53.256;6.456;2022-10-31T12:23:41;14.70;99.90
51765;DHT22;37835;53.256;6.456;2022-10-31T12:26:34;14.70;99.90
51765;DHT22;37835;53.256;6.456;2022-10-31T12:29:29;14.70;99.90
51765;DHT22;37835;53.256;6.456;2022-10-31T12:32:30;14.90;99.90
51765;DHT22;37835;53.256;6.456;2022-10-31T12:43:27;14.90;99.90
51765;DHT22;37835;53.256;6.456;2022-10-31T12:45:59;15.00;99.90
51765;DHT22;37835;53.256;6.456;2022-10-31T12:51:12;14.90;99.90
51765;DHT22;37835;53.256;6.456;2022-10-31T12:57:05;15.00;99.90
51765;DHT22;37835;53.256;6.456;2022-10-31T12:59:47;15.00;99.90
51765;DHT22;37835;53.256;6.456;2022-10-31T13:05:31;15.10;99.90
51765;DHT22;37835;53.256;6.456;2022-10-31T13:08:28;15.00;99.90
51765;DHT22;37835;53.256;6.456;2022-10-31T13:11:15;15.00;99.90
51765;DHT22;37835;53.256;6.456;2022-10-31T13:14:01;15.10;99.90
51765;DHT22;37835;53.256;6.456;2022-10-31T13:16:33;15.10;99.90
51765;DHT22;37835;53.256;6.456;2022-10-31T13:19:16;15.00;99.90
51765;DHT22;37835;53.256;6.456;2022-10-31T13:22:05;14.90;99.90
51765;DHT22;37835;53.256;6.456;2022-10-31T13:24:40;15.10;99.90
51765;DHT22;37835;53.256;6.456;2022-10-31T13:27:21;15.40;99.90
51765;DHT22;37835;53.256;6.456;2022-10-31T13:30:27;15.10;99.90
51765;DHT22;37835;53.256;6.456;2022-10-31T13:32:55;15.00;99.90
51765;DHT22;37835;53.256;6.456;2022-10-31T13:38:30;15.10;99.90
51765;DHT22;37835;53.256;6.456;2022-10-31T13:44:27;15.10;99.90
51765;DHT22;37835;53.256;6.456;2022-10-31T13:46:55;15.10;99.90
51765;DHT22;37835;53.256;6.456;2022-10-31T13:54:49;15.20;99.90
51765;DHT22;37835;53.256;6.456;2022-10-31T13:59:58;15.30;99.90
51765;DHT22;37835;53.256;6.456;2022-10-31T14:02:31;15.30;99.90
51765;DHT22;37835;53.256;6.456;2022-10-31T14:05:06;15.30;99.90
51765;DHT22;37835;53.256;6.456;2022-10-31T14:07:45;15.40;99.90
51765;DHT22;37835;53.256;6.456;2022-10-31T14:10:32;15.30;99.90
51765;DHT22;37835;53.256;6.456;2022-10-31T14:15:42;15.60;99.90
51765;DHT22;37835;53.256;6.456;2022-10-31T14:18:23;15.40;99.90
51765;DHT22;37835;53.256;6.456;2022-10-31T14:20:49;15.50;99.90
51765;DHT22;37835;53.256;6.456;2022-10-31T14:28:45;15.40;99.90
51765;DHT22;37835;53.256;6.456;2022-10-31T14:31:38;15.40;99.90
51765;DHT22;37835;53.256;6.456;2022-10-31T14:34:32;15.10;99.90
51765;DHT22;37835;53.256;6.456;2022-10-31T14:40:42;15.30;99.90
51765;DHT22;37835;53.256;6.456;2022-10-31T14:51:20;15.10;99.90
51765;DHT22;37835;53.256;6.456;2022-10-31T14:53:48;15.10;99.90
51765;DHT22;37835;53.256;6.456;2022-10-31T14:56:21;15.10;99.90
51765;DHT22;37835;53.256;6.456;2022-10-31T14:58:48;14.90;99.90
51765;DHT22;37835;53.256;6.456;2022-10-31T15:01:32;14.90;99.90
51765;DHT22;37835;53.256;6.456;2022-10-31T15:06:46;15.00;99.90
51765;DHT22;37835;53.256;6.456;2022-10-31T15:09:28;15.00;99.90
51765;DHT22;37835;53.256;6.456;2022-10-31T15:11:55;15.00;99.90
51765;DHT22;37835;53.256;6.456;2022-10-31T15:14:27;14.80;99.90
51765;DHT22;37835;53.256;6.456;2022-10-31T15:16:56;14.90;99.90
51765;DHT22;37835;53.256;6.456;2022-10-31T15:19:29;14.80;99.90
51765;DHT22;37835;53.256;6.456;2022-10-31T15:21:58;15.00;99.90
51765;DHT22;37835;53.256;6.456;2022-10-31T15:24:37;14.90;99.90
51765;DHT22;37835;53.256;6.456;2022-10-31T15:27:04;14.90;99.90
51765;DHT22;37835;53.256;6.456;2022-10-31T15:29:31;14.90;99.90
51765;DHT22;37835;53.256;6.456;2022-10-31T15:32:09;14.80;99.90
51765;DHT22;37835;53.256;6.456;2022-10-31T15:34:43;14.70;99.90
51765;DHT22;37835;53.256;6.456;2022-10-31T15:37:14;14.80;99.90
51765;DHT22;37835;53.256;6.456;2022-10-31T15:39:41;14.60;99.90
51765;DHT22;37835;53.256;6.456;2022-10-31T15:42:30;14.60;99.90
51765;DHT22;37835;53.256;6.456;2022-10-31T15:45:04;14.60;99.90
51765;DHT22;37835;53.256;6.456;2022-10-31T15:47:31;14.60;99.90
51765;DHT22;37835;53.256;6.456;2022-10-31T15:49:59;14.70;99.90
51765;DHT22;37835;53.256;6.456;2022-10-31T15:52:42;14.50;99.90
51765;DHT22;37835;53.256;6.456;2022-10-31T15:57:34;14.50;99.90
51765;DHT22;37835;53.256;6.456;2022-10-31T16:00:05;14.30;99.90
51765;DHT22;37835;53.256;6.456;2022-10-31T16:02:31;14.30;99.90
51765;DHT22;37835;53.256;6.456;2022-10-31T16:04:59;14.40;99.90
51765;DHT22;37835;53.256;6.456;2022-10-31T16:07:26;14.90;99.90
51765;DHT22;37835;53.256;6.456;2022-10-31T16:10:02;14.30;99.90
51765;DHT22;37835;53.256;6.456;2022-10-31T16:12:43;14.30;99.90
51765;DHT22;37835;53.256;6.456;2022-10-31T16:15:15;14.30;99.90
51765;DHT22;37835;53.256;6.456;2022-10-31T16:17:43;14.20;99.90
51765;DHT22;37835;53.256;6.456;2022-10-31T16:20:26;14.30;99.90
51765;DHT22;37835;53.256;6.456;2022-10-31T16:22:53;14.10;99.90
51765;DHT22;37835;53.256;6.456;2022-10-31T16:27:51;14.10;99.90
51765;DHT22;37835;53.256;6.456;2022-10-31T16:30:29;14.00;99.90
51765;DHT22;37835;53.256;6.456;2022-10-31T16:32:57;14.20;99.90
51765;DHT22;37835;53.256;6.456;2022-10-31T16:35:28;13.90;99.90
51765;DHT22;37835;53.256;6.456;2022-10-31T16:37:56;14.10;99.90
51765;DHT22;37835;53.256;6.456;2022-10-31T16:40:22;14.00;99.90
51765;DHT22;37835;53.256;6.456;2022-10-31T16:42:48;14.00;99.90
51765;DHT22;37835;53.256;6.456;2022-10-31T16:45:22;14.10;99.90
51765;DHT22;37835;53.256;6.456;2022-10-31T16:47:48;13.90;99.90
51765;DHT22;37835;53.256;6.456;2022-10-31T16:50:24;14.00;99.90
51765;DHT22;37835;53.256;6.456;2022-10-31T16:52:51;14.00;99.90
51765;DHT22;37835;53.256;6.456;2022-10-31T16:55:18;13.90;99.90
51765;DHT22;37835;53.256;6.456;2022-10-31T16:57:52;14.00;99.90
51765;DHT22;37835;53.256;6.456;2022-10-31T17:00:24;13.90;99.90
51765;DHT22;37835;53.256;6.456;2022-10-31T17:02:51;13.80;99.90
51765;DHT22;37835;53.256;6.456;2022-10-31T17:05:19;13.90;99.90
51765;DHT22;37835;53.256;6.456;2022-10-31T17:07:46;13.80;99.90
51765;DHT22;37835;53.256;6.456;2022-10-31T17:10:13;13.90;99.90
51765;DHT22;37835;53.256;6.456;2022-10-31T17:12:43;13.90;99.90
51765;DHT22;37835;53.256;6.456;2022-10-31T17:15:24;13.80;99.90
51765;DHT22;37835;53.256;6.456;2022-10-31T17:17:50;13.80;99.90
51765;DHT22;37835;53.256;6.456;2022-10-31T17:20:27;13.90;99.90
51765;DHT22;37835;53.256;6.456;2022-10-31T17:22:54;14.00;99.90
51765;DHT22;37835;53.256;6.456;2022-10-31T17:25:23;13.80;99.90
51765;DHT22;37835;53.256;6.456;2022-10-31T17:27:50;13.80;99.90
51765;DHT22;37835;53.256;6.456;2022-10-31T17:30:17;13.80;99.90
51765;DHT22;37835;53.256;6.456;2022-10-31T17:32:44;13.70;99.90
51765;DHT22;37835;53.256;6.456;2022-10-31T17:35:12;13.70;99.90
51765;DHT22;37835;53.256;6.456;2022-10-31T17:37:38;13.80;99.90
51765;DHT22;37835;53.256;6.456;2022-10-31T17:40:04;14.30;99.90
51765;DHT22;37835;53.256;6.456;2022-10-31T17:42:30;13.90;99.90
51765;DHT22;37835;53.256;6.456;2022-10-31T17:44:56;13.90;99.90
51765;DHT22;37835;53.256;6.456;2022-10-31T17:47:22;13.70;99.90
51765;DHT22;37835;53.256;6.456;2022-10-31T17:49:47;13.60;99.90
51765;DHT22;37835;53.256;6.456;2022-10-31T17:52:13;13.70;99.90
51765;DHT22;37835;53.256;6.456;2022-10-31T17:54:39;13.80;99.90
51765;DHT22;37835;53.256;6.456;2022-10-31T17:57:05;13.20;99.90
51765;DHT22;37835;53.256;6.456;2022-10-31T17:59:30;13.70;99.90
51765;DHT22;37835;53.256;6.456;2022-10-31T18:01:56;13.80;99.90
51765;DHT22;37835;53.256;6.456;2022-10-31T18:04:22;13.60;99.90
51765;DHT22;37835;53.256;6.456;2022-10-31T18:06:48;13.70;99.90
51765;DHT22;37835;53.256;6.456;2022-10-31T18:09:20;12.90;99.90